This is the latest recevied weather packets stored in our database for station/object ED2YAA-3. If no packets are shown the sender has not sent any weather packets the latest 1 day(s).
| Time | Temp. | Humidity | Pressure | Rain* | Wind** | Luminosity | Snow |
|---|---|---|---|---|---|---|---|
| 1777991717 | 15.56° C | 72% | 993.6 hPa | 0 mm | 0 m/s | - | - |
| 1777988617 | 16.67° C | 70% | 993 hPa | 0 mm | 0 m/s | - | - |
| 1777988114 | 16.67° C | 70% | 993.2 hPa | 0 mm | 0 m/s | - | - |
| 1777985018 | 17.78° C | 65% | 992.9 hPa | 0 mm | 0 m/s | - | - |
| 1777984515 | 17.78° C | 66% | 992.9 hPa | 0 mm | 0 m/s | - | - |
| 1777981419 | 15° C | 69% | 992.9 hPa | 0 mm | 0 m/s | - | - |
| 1777980915 | 15° C | 68% | 993 hPa | 0 mm | 0 m/s | - | - |
| 1777977817 | 18.89° C | 62% | 992.9 hPa | 0 mm | 0 m/s | - | - |
| 1777977314 | 18.33° C | 61% | 992.8 hPa | 0 mm | 0 m/s | - | - |
| 1777974217 | 21.67° C | 52% | 993 hPa | 0 mm | 0 m/s | - | - |
| 1777973714 | 19.44° C | 56% | 993.1 hPa | 0 mm | 0 m/s | - | - |
| 1777970618 | 16.67° C | 74% | 993.2 hPa | 0 mm | 0 m/s | - | - |
| 1777970114 | 16.11° C | 75% | 993.4 hPa | 0 mm | 0 m/s | - | - |
| 1777967017 | 15° C | 78% | 993.3 hPa | 0 mm | 0 m/s | - | - |
| 1777966515 | 14.44° C | 79% | 993.4 hPa | 0 mm | 0 m/s | - | - |
| 1777964575 | 13.33° C | 82% | 993.4 hPa | 0 mm | 0 m/s | - | - |
| 1777962914 | 12.78° C | 84% | 993.3 hPa | 0 mm | 0 m/s | - | - |
| 1777960975 | 11.11° C | 86% | 993.3 hPa | 0 mm | 0 m/s | - | - |
| 1777959314 | 11.11° C | 85% | 993.2 hPa | 0 mm | 0 m/s | - | - |
| 1777957375 | 11.67° C | 85% | 993.1 hPa | 0 mm | 0 m/s | - | - |
| 1777955713 | 11.67° C | 85% | 993.2 hPa | 0 mm | 0 m/s | - | - |
| 1777953774 | 11.67° C | 85% | 993.2 hPa | 0 mm | 0 m/s | - | - |
| 1777952112 | 11.67° C | 84% | 993.1 hPa | 0 mm | 0 m/s | - | - |
| 1777950177 | 11.67° C | 84% | 993.2 hPa | 0 mm | 0 m/s | - | - |
* Rain latest hour (hover to see other rain measurements)
** Current wind speed in m/s (hover to see current wind gust speed)